sensor_id;sensor_type;location;lat;lon;timestamp;P1;durP1;ratioP1;P2;durP2;ratioP2
83690;SDS011;73671;43.220;0.064;2024-01-10T00:01:08;126.78;;;24.35;;
83690;SDS011;73671;43.220;0.064;2024-01-10T00:03:33;113.57;;;24.13;;
83690;SDS011;73671;43.220;0.064;2024-01-10T00:05:59;166.23;;;26.50;;
83690;SDS011;73671;43.220;0.064;2024-01-10T00:08:24;84.18;;;25.77;;
83690;SDS011;73671;43.220;0.064;2024-01-10T00:10:51;99.63;;;25.98;;
83690;SDS011;73671;43.220;0.064;2024-01-10T00:13:19;102.80;;;23.30;;
83690;SDS011;73671;43.220;0.064;2024-01-10T00:15:44;67.65;;;24.45;;
83690;SDS011;73671;43.220;0.064;2024-01-10T00:18:10;126.20;;;24.23;;
83690;SDS011;73671;43.220;0.064;2024-01-10T00:20:35;68.63;;;22.27;;
83690;SDS011;73671;43.220;0.064;2024-01-10T00:23:00;76.22;;;22.65;;
83690;SDS011;73671;43.220;0.064;2024-01-10T00:25:26;69.82;;;21.50;;
83690;SDS011;73671;43.220;0.064;2024-01-10T00:27:51;100.13;;;22.80;;
83690;SDS011;73671;43.220;0.064;2024-01-10T00:30:16;68.28;;;21.33;;
83690;SDS011;73671;43.220;0.064;2024-01-10T00:32:42;111.32;;;20.08;;
83690;SDS011;73671;43.220;0.064;2024-01-10T00:35:07;114.60;;;19.40;;
83690;SDS011;73671;43.220;0.064;2024-01-10T00:37:33;80.03;;;18.15;;
83690;SDS011;73671;43.220;0.064;2024-01-10T00:39:58;91.03;;;20.08;;
83690;SDS011;73671;43.220;0.064;2024-01-10T00:42:23;103.65;;;18.08;;
83690;SDS011;73671;43.220;0.064;2024-01-10T00:44:49;169.50;;;20.05;;
83690;SDS011;73671;43.220;0.064;2024-01-10T00:47:14;94.70;;;20.08;;
83690;SDS011;73671;43.220;0.064;2024-01-10T00:49:40;149.15;;;19.90;;
83690;SDS011;73671;43.220;0.064;2024-01-10T00:52:05;112.57;;;20.10;;
83690;SDS011;73671;43.220;0.064;2024-01-10T00:54:30;118.32;;;20.33;;
83690;SDS011;73671;43.220;0.064;2024-01-10T00:56:56;127.65;;;20.55;;
83690;SDS011;73671;43.220;0.064;2024-01-10T00:59:21;98.13;;;18.83;;
83690;SDS011;73671;43.220;0.064;2024-01-10T01:01:46;96.85;;;17.75;;
83690;SDS011;73671;43.220;0.064;2024-01-10T01:04:12;83.00;;;19.25;;
83690;SDS011;73671;43.220;0.064;2024-01-10T01:06:37;89.57;;;19.33;;
83690;SDS011;73671;43.220;0.064;2024-01-10T01:09:02;66.25;;;20.92;;
83690;SDS011;73671;43.220;0.064;2024-01-10T01:11:28;52.42;;;19.40;;
83690;SDS011;73671;43.220;0.064;2024-01-10T01:13:53;69.40;;;22.95;;
83690;SDS011;73671;43.220;0.064;2024-01-10T01:16:19;90.93;;;24.08;;
83690;SDS011;73671;43.220;0.064;2024-01-10T01:18:44;86.25;;;20.27;;
83690;SDS011;73671;43.220;0.064;2024-01-10T01:21:10;75.50;;;19.98;;
83690;SDS011;73671;43.220;0.064;2024-01-10T01:23:36;87.07;;;20.88;;
83690;SDS011;73671;43.220;0.064;2024-01-10T01:26:02;61.60;;;17.70;;
83690;SDS011;73671;43.220;0.064;2024-01-10T01:28:29;106.63;;;22.85;;
83690;SDS011;73671;43.220;0.064;2024-01-10T01:30:54;77.55;;;23.40;;
83690;SDS011;73671;43.220;0.064;2024-01-10T01:33:20;84.03;;;20.10;;
83690;SDS011;73671;43.220;0.064;2024-01-10T01:35:45;65.13;;;21.90;;
83690;SDS011;73671;43.220;0.064;2024-01-10T01:38:11;53.75;;;21.20;;
83690;SDS011;73671;43.220;0.064;2024-01-10T01:40:36;54.25;;;21.02;;
83690;SDS011;73671;43.220;0.064;2024-01-10T01:43:01;59.67;;;21.83;;
83690;SDS011;73671;43.220;0.064;2024-01-10T01:45:27;55.65;;;21.92;;
83690;SDS011;73671;43.220;0.064;2024-01-10T01:47:52;55.58;;;20.02;;
83690;SDS011;73671;43.220;0.064;2024-01-10T01:50:18;36.03;;;14.43;;
83690;SDS011;73671;43.220;0.064;2024-01-10T01:52:43;51.33;;;22.55;;
83690;SDS011;73671;43.220;0.064;2024-01-10T01:55:09;52.33;;;22.25;;
83690;SDS011;73671;43.220;0.064;2024-01-10T01:57:36;43.28;;;22.10;;
83690;SDS011;73671;43.220;0.064;2024-01-10T02:00:02;63.25;;;23.77;;
83690;SDS011;73671;43.220;0.064;2024-01-10T02:02:30;49.42;;;22.95;;
83690;SDS011;73671;43.220;0.064;2024-01-10T02:04:56;53.67;;;22.85;;
83690;SDS011;73671;43.220;0.064;2024-01-10T02:07:21;40.40;;;21.95;;
83690;SDS011;73671;43.220;0.064;2024-01-10T02:09:47;44.75;;;22.75;;
83690;SDS011;73671;43.220;0.064;2024-01-10T02:12:13;49.05;;;23.60;;
83690;SDS011;73671;43.220;0.064;2024-01-10T02:14:38;45.70;;;23.15;;
83690;SDS011;73671;43.220;0.064;2024-01-10T02:17:04;45.88;;;23.08;;
83690;SDS011;73671;43.220;0.064;2024-01-10T02:19:30;42.28;;;22.30;;
83690;SDS011;73671;43.220;0.064;2024-01-10T02:21:57;45.35;;;22.88;;
83690;SDS011;73671;43.220;0.064;2024-01-10T02:24:22;42.80;;;22.25;;
83690;SDS011;73671;43.220;0.064;2024-01-10T02:26:48;51.22;;;21.70;;
83690;SDS011;73671;43.220;0.064;2024-01-10T02:29:15;43.83;;;21.10;;
83690;SDS011;73671;43.220;0.064;2024-01-10T02:31:40;41.83;;;20.17;;
83690;SDS011;73671;43.220;0.064;2024-01-10T02:34:05;46.13;;;23.13;;
83690;SDS011;73671;43.220;0.064;2024-01-10T02:36:31;43.42;;;22.70;;
83690;SDS011;73671;43.220;0.064;2024-01-10T02:38:56;42.70;;;21.23;;
83690;SDS011;73671;43.220;0.064;2024-01-10T02:41:21;47.03;;;23.23;;
83690;SDS011;73671;43.220;0.064;2024-01-10T02:43:47;63.15;;;24.80;;
83690;SDS011;73671;43.220;0.064;2024-01-10T02:46:12;46.50;;;22.75;;
83690;SDS011;73671;43.220;0.064;2024-01-10T02:48:38;51.08;;;24.42;;
83690;SDS011;73671;43.220;0.064;2024-01-10T02:51:03;47.85;;;23.55;;
83690;SDS011;73671;43.220;0.064;2024-01-10T02:53:28;47.30;;;22.95;;
83690;SDS011;73671;43.220;0.064;2024-01-10T02:55:55;45.53;;;22.15;;
83690;SDS011;73671;43.220;0.064;2024-01-10T02:58:20;48.83;;;22.98;;
83690;SDS011;73671;43.220;0.064;2024-01-10T03:00:46;46.05;;;23.17;;
83690;SDS011;73671;43.220;0.064;2024-01-10T03:03:12;44.65;;;22.95;;
83690;SDS011;73671;43.220;0.064;2024-01-10T03:05:37;45.03;;;24.17;;
83690;SDS011;73671;43.220;0.064;2024-01-10T03:08:02;45.17;;;23.67;;
83690;SDS011;73671;43.220;0.064;2024-01-10T03:10:29;48.20;;;24.77;;
83690;SDS011;73671;43.220;0.064;2024-01-10T03:12:54;51.35;;;25.13;;
83690;SDS011;73671;43.220;0.064;2024-01-10T03:15:19;46.05;;;24.45;;
83690;SDS011;73671;43.220;0.064;2024-01-10T03:17:45;37.17;;;21.13;;
83690;SDS011;73671;43.220;0.064;2024-01-10T03:20:11;38.10;;;21.75;;
83690;SDS011;73671;43.220;0.064;2024-01-10T03:22:36;43.25;;;24.17;;
83690;SDS011;73671;43.220;0.064;2024-01-10T03:25:02;48.65;;;25.17;;
83690;SDS011;73671;43.220;0.064;2024-01-10T03:27:27;47.45;;;24.92;;
83690;SDS011;73671;43.220;0.064;2024-01-10T03:29:53;46.05;;;23.52;;
83690;SDS011;73671;43.220;0.064;2024-01-10T03:32:18;42.03;;;21.77;;
83690;SDS011;73671;43.220;0.064;2024-01-10T03:34:43;36.15;;;20.77;;
83690;SDS011;73671;43.220;0.064;2024-01-10T03:37:09;33.30;;;20.55;;
83690;SDS011;73671;43.220;0.064;2024-01-10T03:39:34;36.20;;;20.77;;
83690;SDS011;73671;43.220;0.064;2024-01-10T03:42:00;38.38;;;21.38;;
83690;SDS011;73671;43.220;0.064;2024-01-10T03:44:26;34.95;;;20.65;;
83690;SDS011;73671;43.220;0.064;2024-01-10T03:46:52;37.28;;;21.00;;
83690;SDS011;73671;43.220;0.064;2024-01-10T03:49:17;33.88;;;20.48;;
83690;SDS011;73671;43.220;0.064;2024-01-10T03:51:42;36.40;;;20.45;;
83690;SDS011;73671;43.220;0.064;2024-01-10T03:54:08;35.80;;;20.67;;
83690;SDS011;73671;43.220;0.064;2024-01-10T03:56:33;41.97;;;21.33;;
83690;SDS011;73671;43.220;0.064;2024-01-10T03:58:59;39.40;;;22.17;;
83690;SDS011;73671;43.220;0.064;2024-01-10T04:01:26;41.65;;;21.73;;
83690;SDS011;73671;43.220;0.064;2024-01-10T04:03:51;41.35;;;21.70;;
83690;SDS011;73671;43.220;0.064;2024-01-10T04:06:17;44.15;;;22.70;;
83690;SDS011;73671;43.220;0.064;2024-01-10T04:08:42;40.00;;;22.48;;
83690;SDS011;73671;43.220;0.064;2024-01-10T04:11:07;37.50;;;21.38;;
83690;SDS011;73671;43.220;0.064;2024-01-10T04:13:34;40.20;;;21.38;;
83690;SDS011;73671;43.220;0.064;2024-01-10T04:15:59;39.05;;;22.15;;
83690;SDS011;73671;43.220;0.064;2024-01-10T04:18:25;41.92;;;21.83;;
83690;SDS011;73671;43.220;0.064;2024-01-10T04:20:51;44.92;;;22.83;;
83690;SDS011;73671;43.220;0.064;2024-01-10T04:23:16;40.88;;;22.50;;
83690;SDS011;73671;43.220;0.064;2024-01-10T04:25:42;40.83;;;22.67;;
83690;SDS011;73671;43.220;0.064;2024-01-10T04:28:07;37.83;;;21.88;;
83690;SDS011;73671;43.220;0.064;2024-01-10T04:30:33;38.67;;;21.67;;
83690;SDS011;73671;43.220;0.064;2024-01-10T04:32:58;40.58;;;22.02;;
83690;SDS011;73671;43.220;0.064;2024-01-10T04:35:23;42.60;;;22.33;;
83690;SDS011;73671;43.220;0.064;2024-01-10T04:37:49;40.67;;;22.88;;
83690;SDS011;73671;43.220;0.064;2024-01-10T04:40:14;42.83;;;21.88;;
83690;SDS011;73671;43.220;0.064;2024-01-10T04:42:40;40.38;;;22.10;;
83690;SDS011;73671;43.220;0.064;2024-01-10T04:45:05;40.45;;;21.45;;
83690;SDS011;73671;43.220;0.064;2024-01-10T04:47:32;42.83;;;21.88;;
83690;SDS011;73671;43.220;0.064;2024-01-10T04:49:57;38.22;;;23.02;;
83690;SDS011;73671;43.220;0.064;2024-01-10T04:52:23;42.05;;;23.08;;
83690;SDS011;73671;43.220;0.064;2024-01-10T04:54:48;37.80;;;22.08;;
83690;SDS011;73671;43.220;0.064;2024-01-10T04:57:14;39.80;;;22.10;;
83690;SDS011;73671;43.220;0.064;2024-01-10T04:59:40;42.97;;;24.02;;
83690;SDS011;73671;43.220;0.064;2024-01-10T05:02:06;49.70;;;26.48;;
83690;SDS011;73671;43.220;0.064;2024-01-10T05:04:32;53.40;;;26.60;;
83690;SDS011;73671;43.220;0.064;2024-01-10T05:07:00;56.28;;;26.98;;
83690;SDS011;73671;43.220;0.064;2024-01-10T05:09:25;49.25;;;25.98;;
83690;SDS011;73671;43.220;0.064;2024-01-10T05:11:51;53.58;;;27.00;;
83690;SDS011;73671;43.220;0.064;2024-01-10T05:14:17;67.57;;;33.53;;
83690;SDS011;73671;43.220;0.064;2024-01-10T05:16:46;51.70;;;28.65;;
83690;SDS011;73671;43.220;0.064;2024-01-10T05:19:13;47.10;;;27.17;;
83690;SDS011;73671;43.220;0.064;2024-01-10T05:21:38;52.55;;;30.35;;
83690;SDS011;73671;43.220;0.064;2024-01-10T05:24:04;47.45;;;24.75;;
83690;SDS011;73671;43.220;0.064;2024-01-10T05:26:30;49.20;;;24.08;;
83690;SDS011;73671;43.220;0.064;2024-01-10T05:28:55;47.38;;;25.00;;
83690;SDS011;73671;43.220;0.064;2024-01-10T05:31:23;46.47;;;23.55;;
83690;SDS011;73671;43.220;0.064;2024-01-10T05:33:49;50.88;;;27.55;;
83690;SDS011;73671;43.220;0.064;2024-01-10T05:36:14;52.72;;;25.23;;
83690;SDS011;73671;43.220;0.064;2024-01-10T05:38:39;52.63;;;25.75;;
83690;SDS011;73671;43.220;0.064;2024-01-10T05:41:05;50.17;;;25.63;;
83690;SDS011;73671;43.220;0.064;2024-01-10T05:43:30;50.35;;;26.35;;
83690;SDS011;73671;43.220;0.064;2024-01-10T05:45:56;50.30;;;24.98;;
83690;SDS011;73671;43.220;0.064;2024-01-10T05:48:22;48.47;;;24.33;;
83690;SDS011;73671;43.220;0.064;2024-01-10T05:50:47;44.65;;;23.27;;
83690;SDS011;73671;43.220;0.064;2024-01-10T05:53:12;41.03;;;23.30;;
83690;SDS011;73671;43.220;0.064;2024-01-10T05:55:41;44.72;;;24.75;;
83690;SDS011;73671;43.220;0.064;2024-01-10T05:58:07;44.13;;;24.52;;
83690;SDS011;73671;43.220;0.064;2024-01-10T06:00:34;45.53;;;25.40;;
83690;SDS011;73671;43.220;0.064;2024-01-10T06:03:00;44.58;;;25.63;;
83690;SDS011;73671;43.220;0.064;2024-01-10T06:05:25;45.35;;;26.30;;
83690;SDS011;73671;43.220;0.064;2024-01-10T06:07:50;41.38;;;24.13;;
83690;SDS011;73671;43.220;0.064;2024-01-10T06:10:16;53.00;;;28.33;;
83690;SDS011;73671;43.220;0.064;2024-01-10T06:12:42;47.28;;;26.55;;
83690;SDS011;73671;43.220;0.064;2024-01-10T06:15:07;36.45;;;20.85;;
83690;SDS011;73671;43.220;0.064;2024-01-10T06:17:33;35.85;;;21.63;;
83690;SDS011;73671;43.220;0.064;2024-01-10T06:19:58;39.72;;;22.02;;
83690;SDS011;73671;43.220;0.064;2024-01-10T06:22:25;39.67;;;22.48;;
83690;SDS011;73671;43.220;0.064;2024-01-10T06:24:51;36.55;;;20.27;;
83690;SDS011;73671;43.220;0.064;2024-01-10T06:27:16;34.88;;;21.75;;
83690;SDS011;73671;43.220;0.064;2024-01-10T06:29:43;38.40;;;20.90;;
83690;SDS011;73671;43.220;0.064;2024-01-10T06:32:10;36.90;;;21.73;;
83690;SDS011;73671;43.220;0.064;2024-01-10T06:34:36;45.85;;;25.27;;
83690;SDS011;73671;43.220;0.064;2024-01-10T06:37:01;47.05;;;26.92;;
83690;SDS011;73671;43.220;0.064;2024-01-10T06:39:26;62.00;;;33.15;;
83690;SDS011;73671;43.220;0.064;2024-01-10T06:41:52;64.88;;;34.03;;
83690;SDS011;73671;43.220;0.064;2024-01-10T06:44:18;64.60;;;34.55;;
83690;SDS011;73671;43.220;0.064;2024-01-10T06:46:43;45.22;;;28.13;;
83690;SDS011;73671;43.220;0.064;2024-01-10T06:49:09;43.35;;;23.70;;
83690;SDS011;73671;43.220;0.064;2024-01-10T06:51:35;38.58;;;22.40;;
83690;SDS011;73671;43.220;0.064;2024-01-10T06:54:00;36.80;;;19.67;;
83690;SDS011;73671;43.220;0.064;2024-01-10T06:56:29;35.35;;;21.40;;
83690;SDS011;73671;43.220;0.064;2024-01-10T06:58:58;42.55;;;23.38;;
83690;SDS011;73671;43.220;0.064;2024-01-10T07:01:23;39.40;;;23.08;;
83690;SDS011;73671;43.220;0.064;2024-01-10T07:03:49;44.80;;;24.58;;
83690;SDS011;73671;43.220;0.064;2024-01-10T07:06:14;52.63;;;29.98;;
83690;SDS011;73671;43.220;0.064;2024-01-10T07:08:40;49.70;;;28.13;;
83690;SDS011;73671;43.220;0.064;2024-01-10T07:11:15;51.13;;;29.65;;
83690;SDS011;73671;43.220;0.064;2024-01-10T07:13:47;45.90;;;25.83;;
83690;SDS011;73671;43.220;0.064;2024-01-10T07:16:12;47.40;;;25.92;;
83690;SDS011;73671;43.220;0.064;2024-01-10T07:18:40;45.67;;;25.08;;
83690;SDS011;73671;43.220;0.064;2024-01-10T07:21:06;47.78;;;25.55;;
83690;SDS011;73671;43.220;0.064;2024-01-10T07:23:31;46.22;;;26.42;;
83690;SDS011;73671;43.220;0.064;2024-01-10T07:25:57;53.10;;;28.10;;
83690;SDS011;73671;43.220;0.064;2024-01-10T07:28:22;44.75;;;24.35;;
83690;SDS011;73671;43.220;0.064;2024-01-10T07:30:48;44.92;;;23.88;;
83690;SDS011;73671;43.220;0.064;2024-01-10T07:33:13;42.20;;;23.42;;
83690;SDS011;73671;43.220;0.064;2024-01-10T07:35:39;43.40;;;23.30;;
83690;SDS011;73671;43.220;0.064;2024-01-10T07:38:04;40.95;;;23.48;;
83690;SDS011;73671;43.220;0.064;2024-01-10T07:40:33;59.92;;;32.28;;
83690;SDS011;73671;43.220;0.064;2024-01-10T07:42:59;60.88;;;31.75;;
83690;SDS011;73671;43.220;0.064;2024-01-10T07:45:24;52.17;;;26.35;;
83690;SDS011;73671;43.220;0.064;2024-01-10T07:47:50;49.15;;;25.13;;
83690;SDS011;73671;43.220;0.064;2024-01-10T07:50:15;41.38;;;23.70;;
83690;SDS011;73671;43.220;0.064;2024-01-10T07:52:41;36.55;;;21.33;;
83690;SDS011;73671;43.220;0.064;2024-01-10T07:55:08;42.58;;;21.60;;
83690;SDS011;73671;43.220;0.064;2024-01-10T07:57:33;33.60;;;20.33;;
83690;SDS011;73671;43.220;0.064;2024-01-10T07:59:59;34.65;;;19.50;;
83690;SDS011;73671;43.220;0.064;2024-01-10T08:02:24;36.35;;;21.77;;
83690;SDS011;73671;43.220;0.064;2024-01-10T08:04:50;55.03;;;29.95;;
83690;SDS011;73671;43.220;0.064;2024-01-10T08:07:16;47.25;;;28.05;;
83690;SDS011;73671;43.220;0.064;2024-01-10T08:09:41;59.03;;;31.67;;
83690;SDS011;73671;43.220;0.064;2024-01-10T08:12:07;56.63;;;33.35;;
83690;SDS011;73671;43.220;0.064;2024-01-10T08:14:32;61.55;;;34.05;;
83690;SDS011;73671;43.220;0.064;2024-01-10T08:16:58;47.00;;;26.45;;
83690;SDS011;73671;43.220;0.064;2024-01-10T08:19:24;51.22;;;27.38;;
83690;SDS011;73671;43.220;0.064;2024-01-10T08:21:53;47.60;;;27.58;;
83690;SDS011;73671;43.220;0.064;2024-01-10T08:24:19;41.53;;;25.67;;
83690;SDS011;73671;43.220;0.064;2024-01-10T08:26:46;43.65;;;24.35;;
83690;SDS011;73671;43.220;0.064;2024-01-10T08:29:11;46.55;;;25.75;;
83690;SDS011;73671;43.220;0.064;2024-01-10T08:31:37;43.58;;;25.42;;
83690;SDS011;73671;43.220;0.064;2024-01-10T08:34:04;45.33;;;25.77;;
83690;SDS011;73671;43.220;0.064;2024-01-10T08:36:29;39.58;;;23.05;;
83690;SDS011;73671;43.220;0.064;2024-01-10T08:38:54;34.42;;;19.95;;
83690;SDS011;73671;43.220;0.064;2024-01-10T08:41:20;35.72;;;19.50;;
83690;SDS011;73671;43.220;0.064;2024-01-10T08:43:48;32.13;;;19.00;;
83690;SDS011;73671;43.220;0.064;2024-01-10T08:46:13;34.25;;;21.55;;
83690;SDS011;73671;43.220;0.064;2024-01-10T08:48:39;40.10;;;23.73;;
83690;SDS011;73671;43.220;0.064;2024-01-10T08:51:05;56.78;;;30.67;;
83690;SDS011;73671;43.220;0.064;2024-01-10T08:53:30;54.20;;;27.75;;
83690;SDS011;73671;43.220;0.064;2024-01-10T08:55:55;57.05;;;34.17;;
83690;SDS011;73671;43.220;0.064;2024-01-10T08:58:21;51.70;;;29.35;;
83690;SDS011;73671;43.220;0.064;2024-01-10T09:00:46;66.90;;;34.22;;
83690;SDS011;73671;43.220;0.064;2024-01-10T09:03:12;56.83;;;33.42;;
83690;SDS011;73671;43.220;0.064;2024-01-10T09:05:37;64.65;;;33.92;;
83690;SDS011;73671;43.220;0.064;2024-01-10T09:08:03;60.53;;;33.40;;
83690;SDS011;73671;43.220;0.064;2024-01-10T09:10:28;58.33;;;31.02;;
83690;SDS011;73671;43.220;0.064;2024-01-10T09:12:54;45.42;;;26.20;;
83690;SDS011;73671;43.220;0.064;2024-01-10T09:15:19;42.30;;;22.40;;
83690;SDS011;73671;43.220;0.064;2024-01-10T09:17:45;37.28;;;21.35;;
83690;SDS011;73671;43.220;0.064;2024-01-10T09:20:11;36.40;;;21.48;;
83690;SDS011;73671;43.220;0.064;2024-01-10T09:22:40;39.20;;;22.13;;
83690;SDS011;73671;43.220;0.064;2024-01-10T09:25:06;49.58;;;26.75;;
83690;SDS011;73671;43.220;0.064;2024-01-10T09:27:32;45.03;;;26.65;;
83690;SDS011;73671;43.220;0.064;2024-01-10T09:30:01;57.83;;;30.33;;
83690;SDS011;73671;43.220;0.064;2024-01-10T09:32:27;53.83;;;29.17;;
83690;SDS011;73671;43.220;0.064;2024-01-10T09:34:56;48.72;;;27.98;;
83690;SDS011;73671;43.220;0.064;2024-01-10T09:37:21;42.72;;;24.35;;
83690;SDS011;73671;43.220;0.064;2024-01-10T09:39:48;39.88;;;23.75;;
83690;SDS011;73671;43.220;0.064;2024-01-10T09:42:13;45.85;;;24.75;;
83690;SDS011;73671;43.220;0.064;2024-01-10T09:44:40;44.05;;;24.13;;
83690;SDS011;73671;43.220;0.064;2024-01-10T09:47:06;41.03;;;24.15;;
83690;SDS011;73671;43.220;0.064;2024-01-10T09:49:33;42.88;;;23.10;;
83690;SDS011;73671;43.220;0.064;2024-01-10T09:51:59;47.33;;;26.77;;
83690;SDS011;73671;43.220;0.064;2024-01-10T09:54:29;65.07;;;34.35;;
83690;SDS011;73671;43.220;0.064;2024-01-10T09:56:56;58.10;;;32.92;;
83690;SDS011;73671;43.220;0.064;2024-01-10T09:59:22;48.47;;;28.52;;
83690;SDS011;73671;43.220;0.064;2024-01-10T10:01:47;42.58;;;26.52;;
83690;SDS011;73671;43.220;0.064;2024-01-10T10:04:13;41.17;;;24.63;;
83690;SDS011;73671;43.220;0.064;2024-01-10T10:06:42;39.75;;;24.08;;
83690;SDS011;73671;43.220;0.064;2024-01-10T10:09:07;40.13;;;24.20;;
83690;SDS011;73671;43.220;0.064;2024-01-10T10:11:33;38.67;;;23.35;;
83690;SDS011;73671;43.220;0.064;2024-01-10T10:14:13;41.42;;;23.80;;
83690;SDS011;73671;43.220;0.064;2024-01-10T10:16:40;42.33;;;22.98;;
83690;SDS011;73671;43.220;0.064;2024-01-10T10:19:06;33.80;;;20.38;;
83690;SDS011;73671;43.220;0.064;2024-01-10T10:21:31;30.08;;;18.95;;
83690;SDS011;73671;43.220;0.064;2024-01-10T10:23:57;33.97;;;20.08;;
83690;SDS011;73671;43.220;0.064;2024-01-10T10:26:24;31.98;;;19.73;;
83690;SDS011;73671;43.220;0.064;2024-01-10T10:28:52;32.58;;;18.83;;
83690;SDS011;73671;43.220;0.064;2024-01-10T10:31:18;34.53;;;17.45;;
83690;SDS011;73671;43.220;0.064;2024-01-10T10:33:44;23.80;;;14.77;;
83690;SDS011;73671;43.220;0.064;2024-01-10T10:36:10;45.30;;;23.40;;
83690;SDS011;73671;43.220;0.064;2024-01-10T10:38:36;42.40;;;22.15;;
83690;SDS011;73671;43.220;0.064;2024-01-10T10:41:04;36.53;;;20.27;;
83690;SDS011;73671;43.220;0.064;2024-01-10T10:43:35;37.55;;;21.60;;
83690;SDS011;73671;43.220;0.064;2024-01-10T10:46:03;43.90;;;26.70;;
83690;SDS011;73671;43.220;0.064;2024-01-10T10:48:34;35.92;;;20.63;;
83690;SDS011;73671;43.220;0.064;2024-01-10T10:51:04;38.75;;;22.42;;
83690;SDS011;73671;43.220;0.064;2024-01-10T10:53:37;37.80;;;19.65;;
83690;SDS011;73671;43.220;0.064;2024-01-10T10:56:05;37.17;;;21.42;;
83690;SDS011;73671;43.220;0.064;2024-01-10T10:58:37;33.47;;;19.52;;
83690;SDS011;73671;43.220;0.064;2024-01-10T11:01:04;34.40;;;20.40;;
83690;SDS011;73671;43.220;0.064;2024-01-10T11:03:33;37.55;;;20.58;;
83690;SDS011;73671;43.220;0.064;2024-01-10T11:06:00;38.92;;;20.55;;
83690;SDS011;73671;43.220;0.064;2024-01-10T11:08:27;36.53;;;20.52;;
83690;SDS011;73671;43.220;0.064;2024-01-10T11:10:55;34.65;;;20.55;;
83690;SDS011;73671;43.220;0.064;2024-01-10T11:16:24;34.10;;;19.77;;
83690;SDS011;73671;43.220;0.064;2024-01-10T11:22:25;35.75;;;19.80;;
83690;SDS011;73671;43.220;0.064;2024-01-10T11:25:06;34.67;;;19.42;;
83690;SDS011;73671;43.220;0.064;2024-01-10T11:27:32;30.42;;;18.27;;
83690;SDS011;73671;43.220;0.064;2024-01-10T11:29:57;30.67;;;19.05;;
83690;SDS011;73671;43.220;0.064;2024-01-10T11:32:24;32.88;;;18.92;;
83690;SDS011;73671;43.220;0.064;2024-01-10T11:37:42;34.53;;;20.35;;
83690;SDS011;73671;43.220;0.064;2024-01-10T11:40:08;29.52;;;18.77;;
83690;SDS011;73671;43.220;0.064;2024-01-10T11:42:44;36.38;;;19.20;;
83690;SDS011;73671;43.220;0.064;2024-01-10T11:45:58;32.97;;;21.05;;
83690;SDS011;73671;43.220;0.064;2024-01-10T11:47:59;33.35;;;19.75;;
83690;SDS011;73671;43.220;0.064;2024-01-10T11:50:24;34.72;;;19.60;;
83690;SDS011;73671;43.220;0.064;2024-01-10T11:52:54;29.27;;;18.90;;
83690;SDS011;73671;43.220;0.064;2024-01-10T11:58:15;31.42;;;19.63;;
83690;SDS011;73671;43.220;0.064;2024-01-10T12:00:42;30.13;;;18.35;;
83690;SDS011;73671;43.220;0.064;2024-01-10T12:03:07;32.50;;;18.23;;
83690;SDS011;73671;43.220;0.064;2024-01-10T12:05:34;30.50;;;18.20;;
83690;SDS011;73671;43.220;0.064;2024-01-10T12:07:59;31.05;;;17.92;;
83690;SDS011;73671;43.220;0.064;2024-01-10T12:10:25;30.27;;;17.85;;
83690;SDS011;73671;43.220;0.064;2024-01-10T12:12:52;28.23;;;17.70;;
83690;SDS011;73671;43.220;0.064;2024-01-10T12:15:19;32.97;;;19.50;;
83690;SDS011;73671;43.220;0.064;2024-01-10T12:17:45;30.48;;;18.63;;
83690;SDS011;73671;43.220;0.064;2024-01-10T12:20:11;29.77;;;18.13;;
83690;SDS011;73671;43.220;0.064;2024-01-10T12:22:37;30.65;;;18.88;;
83690;SDS011;73671;43.220;0.064;2024-01-10T12:25:05;28.10;;;18.58;;
83690;SDS011;73671;43.220;0.064;2024-01-10T12:27:31;29.65;;;18.45;;
83690;SDS011;73671;43.220;0.064;2024-01-10T12:29:57;31.73;;;19.20;;
83690;SDS011;73671;43.220;0.064;2024-01-10T12:32:27;45.45;;;24.75;;
83690;SDS011;73671;43.220;0.064;2024-01-10T12:35:02;43.42;;;24.48;;
83690;SDS011;73671;43.220;0.064;2024-01-10T12:37:29;32.92;;;19.60;;
83690;SDS011;73671;43.220;0.064;2024-01-10T12:39:55;27.75;;;16.25;;
83690;SDS011;73671;43.220;0.064;2024-01-10T12:42:21;27.65;;;17.90;;
83690;SDS011;73671;43.220;0.064;2024-01-10T12:44:47;27.83;;;15.85;;
83690;SDS011;73671;43.220;0.064;2024-01-10T12:47:22;22.65;;;14.75;;
83690;SDS011;73671;43.220;0.064;2024-01-10T12:49:49;25.48;;;14.73;;
83690;SDS011;73671;43.220;0.064;2024-01-10T12:52:15;23.55;;;15.40;;
83690;SDS011;73671;43.220;0.064;2024-01-10T12:54:41;36.35;;;19.20;;
83690;SDS011;73671;43.220;0.064;2024-01-10T12:57:07;27.70;;;16.50;;
83690;SDS011;73671;43.220;0.064;2024-01-10T12:59:32;23.70;;;15.57;;
83690;SDS011;73671;43.220;0.064;2024-01-10T13:01:58;25.48;;;15.65;;
83690;SDS011;73671;43.220;0.064;2024-01-10T13:04:24;24.08;;;16.13;;
83690;SDS011;73671;43.220;0.064;2024-01-10T13:06:49;25.02;;;13.77;;
83690;SDS011;73671;43.220;0.064;2024-01-10T13:09:15;18.40;;;12.88;;
83690;SDS011;73671;43.220;0.064;2024-01-10T13:11:40;22.83;;;13.60;;
83690;SDS011;73671;43.220;0.064;2024-01-10T13:14:06;22.20;;;13.52;;
83690;SDS011;73671;43.220;0.064;2024-01-10T13:16:31;20.58;;;11.63;;
83690;SDS011;73671;43.220;0.064;2024-01-10T13:18:56;16.23;;;10.63;;
83690;SDS011;73671;43.220;0.064;2024-01-10T13:21:23;20.02;;;10.60;;
83690;SDS011;73671;43.220;0.064;2024-01-10T13:23:49;18.38;;;10.13;;
83690;SDS011;73671;43.220;0.064;2024-01-10T13:26:16;17.05;;;10.50;;
83690;SDS011;73671;43.220;0.064;2024-01-10T13:28:41;15.63;;;9.88;;
83690;SDS011;73671;43.220;0.064;2024-01-10T13:31:07;17.65;;;11.35;;
83690;SDS011;73671;43.220;0.064;2024-01-10T13:33:32;18.63;;;10.80;;
83690;SDS011;73671;43.220;0.064;2024-01-10T13:35:57;16.40;;;9.85;;
83690;SDS011;73671;43.220;0.064;2024-01-10T13:38:24;16.63;;;9.90;;
83690;SDS011;73671;43.220;0.064;2024-01-10T13:40:51;15.48;;;10.38;;
83690;SDS011;73671;43.220;0.064;2024-01-10T13:43:16;17.05;;;9.13;;
83690;SDS011;73671;43.220;0.064;2024-01-10T13:45:42;16.55;;;9.73;;
83690;SDS011;73671;43.220;0.064;2024-01-10T13:48:07;14.35;;;10.10;;
83690;SDS011;73671;43.220;0.064;2024-01-10T13:50:33;15.80;;;10.25;;
83690;SDS011;73671;43.220;0.064;2024-01-10T13:52:58;15.05;;;10.80;;
83690;SDS011;73671;43.220;0.064;2024-01-10T13:55:23;22.83;;;15.07;;
83690;SDS011;73671;43.220;0.064;2024-01-10T13:57:49;27.75;;;17.83;;
83690;SDS011;73671;43.220;0.064;2024-01-10T14:00:15;19.42;;;12.18;;
83690;SDS011;73671;43.220;0.064;2024-01-10T14:02:41;19.55;;;12.55;;
83690;SDS011;73671;43.220;0.064;2024-01-10T14:05:07;25.15;;;14.80;;
83690;SDS011;73671;43.220;0.064;2024-01-10T14:07:34;26.95;;;16.15;;
83690;SDS011;73671;43.220;0.064;2024-01-10T14:10:00;28.17;;;16.65;;
83690;SDS011;73671;43.220;0.064;2024-01-10T14:12:26;28.00;;;17.00;;
83690;SDS011;73671;43.220;0.064;2024-01-10T14:14:53;33.40;;;17.52;;
83690;SDS011;73671;43.220;0.064;2024-01-10T14:17:19;28.40;;;16.63;;
83690;SDS011;73671;43.220;0.064;2024-01-10T14:19:44;27.88;;;17.33;;
83690;SDS011;73671;43.220;0.064;2024-01-10T14:22:10;27.05;;;16.48;;
83690;SDS011;73671;43.220;0.064;2024-01-10T14:24:36;25.52;;;15.38;;
83690;SDS011;73671;43.220;0.064;2024-01-10T14:27:01;27.15;;;14.88;;